Skip to main content

NOAA/GLERL Met Station at Chicago, IL

Previous 3 Hours (2 minute increments)
See also Previous 5 Days (top of hour)
Jump down to Data
Switch to [English][Metric]
Zoom: Click and drag, Pan: shift-click and drag, Unzoom: double-click, Unzoom All




See also 1-day windrose plot


NOAA/GLERL Met Station at Chicago, IL

Previous 3 Hours (2 minute increments)
See also Previous 5 Days (top of hour only)
Jump up to Graphs
Switch to [English][Metric]
                  Wind  Wind  Wind   Air   Dew   Rel
                   Spd   Gst   Dir  Temp    Pt   Hum
YYYY-MM-DD   CDT   m/s   m/s   deg     C     C     %
2020-08-13 09:50   2.2   2.4    87  23.2  21.5  89.8
2020-08-13 09:48   2.1   2.3    82  23.3  21.5  89.6
2020-08-13 09:46   2.1   2.3    81  23.3  21.5  89.5
2020-08-13 09:44   2.1   2.2    78  23.3  21.5  89.4
2020-08-13 09:42   2.1   2.2    80  23.3  21.5  89.3
2020-08-13 09:40   2.0   2.2    85  23.4  21.7  89.9
2020-08-13 09:38   1.9   2.1    82  23.4  21.6  89.2
2020-08-13 09:36   1.8   2.0    90  23.5  21.7  89.6
2020-08-13 09:34   2.1   2.3    94  23.6  21.6  88.6
2020-08-13 09:32   2.1   2.4    96  23.6  21.6  88.4
2020-08-13 09:30   2.3   2.5    95  23.6  21.5  88.0
2020-08-13 09:28   2.3   2.5    98  23.5  21.6  89.0
2020-08-13 09:26   2.4   2.5    95  23.4  21.5  88.7
2020-08-13 09:24   2.1   2.4    96  23.4  21.5  88.8
2020-08-13 09:22   2.0   2.1    93  23.4  21.3  87.8
2020-08-13 09:20   2.0   2.1    89  23.4  21.4  88.5
2020-08-13 09:18   1.9   2.0    82  23.4  21.3  88.0
2020-08-13 09:16   1.8   2.0    75  23.5  21.4  87.8
2020-08-13 09:14   1.9   2.1    71  23.5  21.3  87.5
2020-08-13 09:12   1.8   1.9    69  23.5  21.4  87.6
2020-08-13 09:10   1.7   1.9    65  23.5  21.3  87.4
2020-08-13 09:08   1.6   1.9    58  23.6  21.6  88.5
2020-08-13 09:06   1.7   1.9    57  23.6  21.5  87.6
2020-08-13 09:04   2.0   2.2    64  23.6  21.4  87.4
2020-08-13 09:02   1.9   2.1    66  23.6  21.6  88.3
2020-08-13 09:00   2.0   2.2    67  23.6  21.7  88.7
2020-08-13 08:58   1.8   1.9    64  23.6  21.7  88.7
2020-08-13 08:56   1.9   1.9    65  23.5  21.4  88.0
2020-08-13 08:54   1.7   2.0    62  23.5  21.6  88.9
2020-08-13 08:52   1.8   2.0    65  23.5  21.6  88.9
2020-08-13 08:50   1.8   2.0    72  23.4  21.6  89.6
2020-08-13 08:48   1.9   2.1    78  23.4  21.8  90.3
2020-08-13 08:46   2.0   2.1    77  23.4  21.8  90.6
2020-08-13 08:44   2.0   2.1    76  23.4  21.8  90.3
2020-08-13 08:42   1.9   2.1    73  23.4  21.7  90.2
2020-08-13 08:40   2.0   2.2    77  23.4  21.8  90.3
2020-08-13 08:38   2.0   2.2    82  23.4  21.6  89.3
2020-08-13 08:36   2.0   2.2    87  23.4  21.7  89.9
2020-08-13 08:34   2.1   2.4    82  23.4  21.8  90.4
2020-08-13 08:32   2.0   2.1    81  23.4  21.7  90.2
2020-08-13 08:30   1.7   2.1    86  23.5  22.0  91.0
2020-08-13 08:28   1.8   1.9    83  23.6  22.0  90.5
2020-08-13 08:26   1.7   1.9    89  23.6  22.0  90.7
2020-08-13 08:24   1.8   2.0    91  23.7  22.1  90.7
2020-08-13 08:22   1.9   2.1    98  23.8  22.0  89.7
2020-08-13 08:20   2.0   2.2   107  24.0  22.0  88.2
2020-08-13 08:18   2.0   2.1   111  24.1  22.0  87.7
2020-08-13 08:16   2.0   2.2   119  24.1  21.9  87.5
2020-08-13 08:14   2.0   2.2   122  23.9  22.0  88.8
2020-08-13 08:12   2.0   2.1   108  23.7  22.0  89.9
2020-08-13 08:10   1.9   2.0   104  23.7  21.8  89.1
2020-08-13 08:08   1.9   2.0   108  23.8  22.0  89.3
2020-08-13 08:06   1.9   2.0   110  23.7  22.0  89.8
2020-08-13 08:04   1.7   1.9   103  23.7  21.9  89.5
2020-08-13 08:02   1.8   1.9   111  23.6  21.8  89.2
2020-08-13 08:00   1.8   1.9   104  23.5  21.8  90.0
2020-08-13 07:58   1.8   1.9    96  23.4  21.9  90.9
2020-08-13 07:56   1.7   1.8    98  23.4  22.1  92.2
2020-08-13 07:54   1.8   1.9   103  23.4  22.0  91.9
2020-08-13 07:52   1.8   1.9   103  23.4  22.2  92.6
2020-08-13 07:50   1.9   2.1   106  23.4  22.2  92.6
2020-08-13 07:48   2.0   2.2   116  23.4  22.0  91.8
2020-08-13 07:46   2.1   2.3   113  23.4  22.0  91.8
2020-08-13 07:44   2.2   2.4   110  23.3  21.8  91.2
2020-08-13 07:42   2.3   2.5   100  23.3  21.8  90.9
2020-08-13 07:40   2.7   2.9   102  23.3  21.7  90.5
2020-08-13 07:38   2.8   3.0   106  23.4  21.8  90.6
2020-08-13 07:36   2.6   2.7    96  23.4  21.8  90.6
2020-08-13 07:34   2.7   2.8    93  23.5  21.9  90.4
2020-08-13 07:32   2.8   3.0    92  23.6  21.9  89.9
2020-08-13 07:30   2.8   3.0    98  23.6  21.9  90.2
2020-08-13 07:28   3.0   3.2    96  23.6  21.8  89.5
2020-08-13 07:26   2.9   3.1    94  23.6  21.9  89.8
2020-08-13 07:24   2.7   2.9    99  23.5  22.0  90.9
2020-08-13 07:22   2.7   3.0   112  23.5  22.1  91.6
2020-08-13 07:20   2.4   2.6   104  23.5  22.2  92.4
2020-08-13 07:18   2.4   2.5    95  23.6  22.2  91.8
2020-08-13 07:16   2.1   2.3   101  23.9  22.3  90.4
2020-08-13 07:14   2.5   2.8   122  24.0  22.3  89.8
2020-08-13 07:12   2.6   2.7   131  23.9  22.1  89.7
2020-08-13 07:10   2.4   2.5   130  23.8  22.1  90.3
2020-08-13 07:08   1.7   2.0   123  23.6  22.0  90.7
2020-08-13 07:06   1.6   1.9   105  23.6  21.9  90.2
2020-08-13 07:04   2.0   2.3   119  23.7  21.9  89.7
2020-08-13 07:02   2.1   2.7   133  23.7  22.1  90.7
2020-08-13 07:00   2.0   2.4   136  23.7  22.1  90.7
2020-08-13 06:58   2.0   2.2   134  23.6  21.9  90.2
2020-08-13 06:56   1.9   2.2   111  23.5  21.9  90.7
2020-08-13 06:54   2.0   2.2   119  23.5  22.0  91.0
2020-08-13 06:52   2.3   2.7   125  23.4  21.9  91.4
2020-08-13 06:50   2.4   2.9   138  23.4  22.0  91.5